sensor_id;sensor_type;location;lat;lon;timestamp;pressure;altitude;pressure_sealevel;temperature;humidity
72560;BME280;62987;52.382;9.752;2023-03-13T00:01:11;99764.25;;;8.06;91.19
72560;BME280;62987;52.382;9.752;2023-03-13T00:03:40;99776.47;;;8.27;90.64
72560;BME280;62987;52.382;9.752;2023-03-13T00:06:09;99756.16;;;8.09;90.64
72560;BME280;62987;52.382;9.752;2023-03-13T00:08:37;99761.50;;;8.26;90.70
72560;BME280;62987;52.382;9.752;2023-03-13T00:11:09;99772.03;;;8.28;90.51
72560;BME280;62987;52.382;9.752;2023-03-13T00:13:37;99765.16;;;8.24;90.72
72560;BME280;62987;52.382;9.752;2023-03-13T00:16:07;99759.22;;;8.19;91.28
72560;BME280;62987;52.382;9.752;2023-03-13T00:18:37;99759.78;;;8.25;90.80
72560;BME280;62987;52.382;9.752;2023-03-13T00:21:07;99751.91;;;8.24;90.59
72560;BME280;62987;52.382;9.752;2023-03-13T00:23:36;99740.75;;;8.17;91.12
72560;BME280;62987;52.382;9.752;2023-03-13T00:26:07;99704.44;;;8.02;90.18
72560;BME280;62987;52.382;9.752;2023-03-13T00:28:37;99748.94;;;8.31;90.29
72560;BME280;62987;52.382;9.752;2023-03-13T00:31:07;99749.84;;;8.30;90.05
72560;BME280;62987;52.382;9.752;2023-03-13T00:33:38;99743.91;;;8.25;89.36
72560;BME280;62987;52.382;9.752;2023-03-13T00:36:08;99739.31;;;8.29;89.44
72560;BME280;62987;52.382;9.752;2023-03-13T00:38:36;99746.31;;;8.30;88.96
72560;BME280;62987;52.382;9.752;2023-03-13T00:41:06;99730.31;;;8.33;89.30
72560;BME280;62987;52.382;9.752;2023-03-13T00:43:38;99728.09;;;8.43;88.26
72560;BME280;62987;52.382;9.752;2023-03-13T00:46:06;99721.28;;;8.37;88.40
72560;BME280;62987;52.382;9.752;2023-03-13T00:48:34;99727.44;;;8.37;88.15
72560;BME280;62987;52.382;9.752;2023-03-13T00:51:05;99726.50;;;8.38;88.33
72560;BME280;62987;52.382;9.752;2023-03-13T00:53:33;99724.72;;;8.39;88.42
72560;BME280;62987;52.382;9.752;2023-03-13T00:56:03;99714.84;;;8.43;87.53
72560;BME280;62987;52.382;9.752;2023-03-13T00:58:33;99709.38;;;8.46;86.80
72560;BME280;62987;52.382;9.752;2023-03-13T01:01:06;99689.72;;;8.32;87.12
72560;BME280;62987;52.382;9.752;2023-03-13T01:03:35;99702.59;;;8.40;87.36
72560;BME280;62987;52.382;9.752;2023-03-13T01:06:08;99695.88;;;8.50;86.54
72560;BME280;62987;52.382;9.752;2023-03-13T01:08:37;99700.34;;;8.50;86.61
72560;BME280;62987;52.382;9.752;2023-03-13T01:11:07;99700.34;;;8.50;86.56
72560;BME280;62987;52.382;9.752;2023-03-13T01:13:36;99693.34;;;8.49;86.45
72560;BME280;62987;52.382;9.752;2023-03-13T01:16:06;99692.69;;;8.43;87.06
72560;BME280;62987;52.382;9.752;2023-03-13T01:18:36;99682.56;;;8.52;86.00
72560;BME280;62987;52.382;9.752;2023-03-13T01:21:06;99669.09;;;8.56;85.45
72560;BME280;62987;52.382;9.752;2023-03-13T01:23:34;99671.66;;;8.58;85.04
72560;BME280;62987;52.382;9.752;2023-03-13T01:26:04;99665.69;;;8.54;85.87
72560;BME280;62987;52.382;9.752;2023-03-13T01:28:32;99652.94;;;8.43;86.01
72560;BME280;62987;52.382;9.752;2023-03-13T01:31:01;99650.16;;;8.47;85.28
72560;BME280;62987;52.382;9.752;2023-03-13T01:33:37;99655.47;;;8.47;85.91
72560;BME280;62987;52.382;9.752;2023-03-13T01:36:07;99620.06;;;8.30;86.01
72560;BME280;62987;52.382;9.752;2023-03-13T01:38:36;99642.13;;;8.48;86.74
72560;BME280;62987;52.382;9.752;2023-03-13T01:41:04;99639.38;;;8.32;88.02
72560;BME280;62987;52.382;9.752;2023-03-13T01:43:34;99645.47;;;8.34;88.83
72560;BME280;62987;52.382;9.752;2023-03-13T01:46:09;99616.56;;;8.11;90.12
72560;BME280;62987;52.382;9.752;2023-03-13T01:49:02;99619.63;;;8.03;91.11
72560;BME280;62987;52.382;9.752;2023-03-13T01:51:39;99616.78;;;7.89;93.52
72560;BME280;62987;52.382;9.752;2023-03-13T01:54:11;99619.56;;;7.86;95.56
72560;BME280;62987;52.382;9.752;2023-03-13T01:56:45;99614.19;;;7.71;97.96
72560;BME280;62987;52.382;9.752;2023-03-13T01:59:16;99606.09;;;7.55;98.33
72560;BME280;62987;52.382;9.752;2023-03-13T02:01:46;99596.72;;;7.48;98.95
72560;BME280;62987;52.382;9.752;2023-03-13T02:04:17;99586.81;;;7.34;100.00
72560;BME280;62987;52.382;9.752;2023-03-13T02:06:51;99583.66;;;7.26;100.00
72560;BME280;62987;52.382;9.752;2023-03-13T02:09:25;99588.28;;;7.21;100.00
72560;BME280;62987;52.382;9.752;2023-03-13T02:12:02;99575.59;;;7.10;100.00
72560;BME280;62987;52.382;9.752;2023-03-13T02:14:33;99577.31;;;7.11;100.00
72560;BME280;62987;52.382;9.752;2023-03-13T02:17:03;99551.34;;;7.01;100.00
72560;BME280;62987;52.382;9.752;2023-03-13T02:19:37;99549.38;;;7.06;100.00
72560;BME280;62987;52.382;9.752;2023-03-13T02:22:13;99563.22;;;7.11;100.00
72560;BME280;62987;52.382;9.752;2023-03-13T02:24:49;99546.56;;;7.09;100.00
72560;BME280;62987;52.382;9.752;2023-03-13T02:27:20;99546.56;;;7.09;100.00
72560;BME280;62987;52.382;9.752;2023-03-13T02:29:48;99532.78;;;7.02;100.00
72560;BME280;62987;52.382;9.752;2023-03-13T02:32:17;99535.88;;;7.12;100.00
72560;BME280;62987;52.382;9.752;2023-03-13T02:34:47;99515.78;;;7.08;100.00
72560;BME280;62987;52.382;9.752;2023-03-13T02:37:18;99520.00;;;7.12;100.00
72560;BME280;62987;52.382;9.752;2023-03-13T02:39:49;99512.78;;;7.15;100.00
72560;BME280;62987;52.382;9.752;2023-03-13T02:42:21;99503.28;;;7.11;100.00
72560;BME280;62987;52.382;9.752;2023-03-13T02:44:50;99503.97;;;7.15;100.00
72560;BME280;62987;52.382;9.752;2023-03-13T02:47:18;99497.69;;;7.17;100.00
72560;BME280;62987;52.382;9.752;2023-03-13T02:49:46;99486.56;;;7.11;100.00
72560;BME280;62987;52.382;9.752;2023-03-13T02:52:19;99484.97;;;7.26;100.00
72560;BME280;62987;52.382;9.752;2023-03-13T02:54:51;99475.31;;;7.25;100.00
72560;BME280;62987;52.382;9.752;2023-03-13T02:57:22;99465.75;;;7.22;100.00
72560;BME280;62987;52.382;9.752;2023-03-13T02:59:50;99458.59;;;7.24;100.00
72560;BME280;62987;52.382;9.752;2023-03-13T03:02:18;99462.16;;;7.23;100.00
72560;BME280;62987;52.382;9.752;2023-03-13T03:04:46;99447.78;;;7.29;100.00
72560;BME280;62987;52.382;9.752;2023-03-13T03:07:14;99414.25;;;7.12;100.00
72560;BME280;62987;52.382;9.752;2023-03-13T03:09:43;99404.31;;;7.17;100.00
72560;BME280;62987;52.382;9.752;2023-03-13T03:12:16;99408.50;;;7.21;100.00
72560;BME280;62987;52.382;9.752;2023-03-13T03:14:46;99388.81;;;7.09;100.00
72560;BME280;62987;52.382;9.752;2023-03-13T03:17:15;99400.09;;;7.13;100.00
72560;BME280;62987;52.382;9.752;2023-03-13T03:19:42;99402.34;;;7.20;100.00
72560;BME280;62987;52.382;9.752;2023-03-13T03:22:11;99400.25;;;7.10;100.00
72560;BME280;62987;52.382;9.752;2023-03-13T03:24:38;99376.81;;;7.02;100.00
72560;BME280;62987;52.382;9.752;2023-03-13T03:27:06;99385.38;;;7.07;100.00
72560;BME280;62987;52.382;9.752;2023-03-13T03:29:40;99372.56;;;7.00;100.00
72560;BME280;62987;52.382;9.752;2023-03-13T03:32:10;99372.56;;;7.00;100.00
72560;BME280;62987;52.382;9.752;2023-03-13T03:34:38;99365.56;;;6.99;100.00
72560;BME280;62987;52.382;9.752;2023-03-13T03:37:06;99365.38;;;7.02;100.00
72560;BME280;62987;52.382;9.752;2023-03-13T03:39:35;99354.69;;;7.05;100.00
72560;BME280;62987;52.382;9.752;2023-03-13T03:42:04;99356.53;;;7.03;100.00
72560;BME280;62987;52.382;9.752;2023-03-13T03:44:32;99347.81;;;7.01;100.00
72560;BME280;62987;52.382;9.752;2023-03-13T03:47:02;99313.00;;;6.93;100.00
72560;BME280;62987;52.382;9.752;2023-03-13T03:49:35;99319.38;;;7.06;100.00
72560;BME280;62987;52.382;9.752;2023-03-13T03:52:05;99324.38;;;7.12;100.00
72560;BME280;62987;52.382;9.752;2023-03-13T03:54:36;99314.53;;;7.14;100.00
72560;BME280;62987;52.382;9.752;2023-03-13T03:57:04;99295.28;;;7.12;100.00
72560;BME280;62987;52.382;9.752;2023-03-13T03:59:33;99289.88;;;7.13;100.00
72560;BME280;62987;52.382;9.752;2023-03-13T04:02:10;99311.13;;;7.29;100.00
72560;BME280;62987;52.382;9.752;2023-03-13T04:04:41;99295.59;;;7.23;100.00
72560;BME280;62987;52.382;9.752;2023-03-13T04:07:15;99281.75;;;7.18;100.00
72560;BME280;62987;52.382;9.752;2023-03-13T04:09:43;99288.97;;;7.14;100.00
72560;BME280;62987;52.382;9.752;2023-03-13T04:12:19;99290.44;;;7.20;100.00
72560;BME280;62987;52.382;9.752;2023-03-13T04:14:50;99295.59;;;7.23;100.00
72560;BME280;62987;52.382;9.752;2023-03-13T04:17:19;99267.75;;;6.99;100.00
72560;BME280;62987;52.382;9.752;2023-03-13T04:19:49;99277.09;;;7.06;100.00
72560;BME280;62987;52.382;9.752;2023-03-13T04:22:17;99279.09;;;7.18;100.00
72560;BME280;62987;52.382;9.752;2023-03-13T04:24:49;99269.72;;;7.12;100.00
72560;BME280;62987;52.382;9.752;2023-03-13T04:27:18;99264.50;;;7.11;100.00
72560;BME280;62987;52.382;9.752;2023-03-13T04:29:47;99261.59;;;7.15;100.00
72560;BME280;62987;52.382;9.752;2023-03-13T04:32:32;99246.78;;;7.13;100.00
72560;BME280;62987;52.382;9.752;2023-03-13T04:35:19;99246.91;;;7.10;100.00
72560;BME280;62987;52.382;9.752;2023-03-13T04:38:05;99239.75;;;7.12;100.00
72560;BME280;62987;52.382;9.752;2023-03-13T04:40:59;99235.72;;;8.35;100.00
72560;BME280;62987;52.382;9.752;2023-03-13T04:43:39;99226.81;;;7.89;100.00
72560;BME280;62987;52.382;9.752;2023-03-13T04:46:24;99213.81;;;7.84;100.00
72560;BME280;62987;52.382;9.752;2023-03-13T04:49:24;99208.38;;;8.03;100.00
72560;BME280;62987;52.382;9.752;2023-03-13T04:52:08;99204.59;;;8.07;100.00
72560;BME280;62987;52.382;9.752;2023-03-13T04:55:07;99196.59;;;8.09;100.00
72560;BME280;62987;52.382;9.752;2023-03-13T04:57:53;99183.50;;;8.06;100.00
72560;BME280;62987;52.382;9.752;2023-03-13T05:00:38;99197.25;;;8.12;100.00
72560;BME280;62987;52.382;9.752;2023-03-13T05:03:26;99176.66;;;8.17;100.00
72560;BME280;62987;52.382;9.752;2023-03-13T05:06:07;99141.22;;;8.04;100.00
72560;BME280;62987;52.382;9.752;2023-03-13T05:09:07;99153.38;;;8.08;100.00
72560;BME280;62987;52.382;9.752;2023-03-13T05:11:54;99150.88;;;8.21;100.00
72560;BME280;62987;52.382;9.752;2023-03-13T05:14:47;99158.47;;;8.27;100.00
72560;BME280;62987;52.382;9.752;2023-03-13T05:17:25;99164.88;;;8.23;100.00
72560;BME280;62987;52.382;9.752;2023-03-13T05:20:10;99158.63;;;8.24;100.00
72560;BME280;62987;52.382;9.752;2023-03-13T05:23:01;99152.31;;;8.26;100.00
72560;BME280;62987;52.382;9.752;2023-03-13T05:25:46;99133.94;;;8.23;100.00
72560;BME280;62987;52.382;9.752;2023-03-13T05:28:32;99146.69;;;8.32;100.00
72560;BME280;62987;52.382;9.752;2023-03-13T05:31:20;99148.41;;;8.33;100.00
72560;BME280;62987;52.382;9.752;2023-03-13T05:33:49;99141.03;;;8.38;100.00
72560;BME280;62987;52.382;9.752;2023-03-13T05:36:26;99143.00;;;8.35;100.00
72560;BME280;62987;52.382;9.752;2023-03-13T05:39:13;99124.03;;;8.43;100.00
72560;BME280;62987;52.382;9.752;2023-03-13T05:41:48;99121.03;;;8.49;100.00
72560;BME280;62987;52.382;9.752;2023-03-13T05:44:41;99125.19;;;8.53;100.00
72560;BME280;62987;52.382;9.752;2023-03-13T05:47:25;99118.16;;;8.52;100.00
72560;BME280;62987;52.382;9.752;2023-03-13T05:50:20;99117.31;;;8.51;100.00
72560;BME280;62987;52.382;9.752;2023-03-13T05:53:06;99099.94;;;8.61;100.00
72560;BME280;62987;52.382;9.752;2023-03-13T05:55:48;99110.81;;;8.71;100.00
72560;BME280;62987;52.382;9.752;2023-03-13T05:58:43;99121.91;;;8.77;100.00
72560;BME280;62987;52.382;9.752;2023-03-13T06:01:24;99105.25;;;8.75;100.00
72560;BME280;62987;52.382;9.752;2023-03-13T06:04:03;99099.88;;;8.91;100.00
72560;BME280;62987;52.382;9.752;2023-03-13T06:06:34;99092.59;;;8.80;100.00
72560;BME280;62987;52.382;9.752;2023-03-13T06:09:03;99096.75;;;8.99;100.00
72560;BME280;62987;52.382;9.752;2023-03-13T06:11:32;99100.84;;;9.04;100.00
72560;BME280;62987;52.382;9.752;2023-03-13T06:14:04;99091.38;;;9.00;100.00
72560;BME280;62987;52.382;9.752;2023-03-13T06:17:07;99095.81;;;9.00;100.00
72560;BME280;62987;52.382;9.752;2023-03-13T06:19:35;99083.78;;;9.08;100.00
72560;BME280;62987;52.382;9.752;2023-03-13T06:22:03;99078.84;;;9.02;100.00
72560;BME280;62987;52.382;9.752;2023-03-13T06:24:31;99074.31;;;9.04;100.00
72560;BME280;62987;52.382;9.752;2023-03-13T06:26:59;99081.13;;;9.08;100.00
72560;BME280;62987;52.382;9.752;2023-03-13T06:29:28;99090.00;;;9.21;100.00
72560;BME280;62987;52.382;9.752;2023-03-13T06:31:56;99079.69;;;9.31;100.00
72560;BME280;62987;52.382;9.752;2023-03-13T06:34:24;99081.56;;;9.43;100.00
72560;BME280;62987;52.382;9.752;2023-03-13T06:36:52;99063.22;;;8.55;100.00
72560;BME280;62987;52.382;9.752;2023-03-13T06:39:20;99078.25;;;8.69;100.00
72560;BME280;62987;52.382;9.752;2023-03-13T06:41:48;99066.72;;;8.70;100.00
72560;BME280;62987;52.382;9.752;2023-03-13T06:44:16;99072.03;;;8.84;100.00
72560;BME280;62987;52.382;9.752;2023-03-13T06:46:45;99072.81;;;8.86;100.00
72560;BME280;62987;52.382;9.752;2023-03-13T06:49:13;99066.34;;;8.90;100.00
72560;BME280;62987;52.382;9.752;2023-03-13T06:51:41;99066.53;;;9.01;100.00
72560;BME280;62987;52.382;9.752;2023-03-13T06:54:09;99051.38;;;9.03;100.00
72560;BME280;62987;52.382;9.752;2023-03-13T06:56:37;99067.13;;;9.06;100.00
72560;BME280;62987;52.382;9.752;2023-03-13T06:59:05;99061.34;;;9.00;100.00
72560;BME280;62987;52.382;9.752;2023-03-13T07:01:33;99032.84;;;8.75;100.00
72560;BME280;62987;52.382;9.752;2023-03-13T07:04:05;99058.00;;;8.96;100.00
72560;BME280;62987;52.382;9.752;2023-03-13T07:06:38;99023.53;;;8.82;100.00
72560;BME280;62987;52.382;9.752;2023-03-13T07:09:06;99030.56;;;8.97;100.00
72560;BME280;62987;52.382;9.752;2023-03-13T07:11:35;99000.06;;;8.90;100.00
72560;BME280;62987;52.382;9.752;2023-03-13T07:14:03;99051.09;;;9.22;100.00
72560;BME280;62987;52.382;9.752;2023-03-13T07:16:42;99054.28;;;9.27;100.00
72560;BME280;62987;52.382;9.752;2023-03-13T07:19:12;99052.09;;;9.34;100.00
72560;BME280;62987;52.382;9.752;2023-03-13T07:21:41;99053.63;;;9.38;100.00
72560;BME280;62987;52.382;9.752;2023-03-13T07:24:10;99051.53;;;9.43;100.00
72560;BME280;62987;52.382;9.752;2023-03-13T07:26:38;99048.56;;;9.47;100.00
72560;BME280;62987;52.382;9.752;2023-03-13T07:29:14;99044.22;;;9.46;100.00
72560;BME280;62987;52.382;9.752;2023-03-13T07:31:42;99047.13;;;9.56;100.00
72560;BME280;62987;52.382;9.752;2023-03-13T07:34:11;99043.00;;;9.52;100.00
72560;BME280;62987;52.382;9.752;2023-03-13T07:36:39;99036.13;;;9.62;100.00
72560;BME280;62987;52.382;9.752;2023-03-13T07:39:07;99029.88;;;9.63;100.00
72560;BME280;62987;52.382;9.752;2023-03-13T07:41:36;99049.94;;;9.67;100.00
72560;BME280;62987;52.382;9.752;2023-03-13T07:44:05;99067.03;;;9.63;100.00
72560;BME280;62987;52.382;9.752;2023-03-13T07:46:33;99052.25;;;9.59;100.00
72560;BME280;62987;52.382;9.752;2023-03-13T07:49:01;99055.81;;;9.72;100.00
72560;BME280;62987;52.382;9.752;2023-03-13T07:51:30;99069.28;;;9.69;100.00
72560;BME280;62987;52.382;9.752;2023-03-13T07:54:09;99060.91;;;9.75;100.00
72560;BME280;62987;52.382;9.752;2023-03-13T07:56:38;99066.22;;;9.75;100.00
72560;BME280;62987;52.382;9.752;2023-03-13T07:59:06;99076.59;;;9.92;100.00
72560;BME280;62987;52.382;9.752;2023-03-13T08:01:35;99084.50;;;10.07;100.00
72560;BME280;62987;52.382;9.752;2023-03-13T08:04:03;99064.19;;;10.20;100.00
72560;BME280;62987;52.382;9.752;2023-03-13T08:06:33;99053.94;;;10.14;100.00
72560;BME280;62987;52.382;9.752;2023-03-13T08:09:03;99070.91;;;10.38;100.00
72560;BME280;62987;52.382;9.752;2023-03-13T08:11:31;99066.38;;;10.53;100.00
72560;BME280;62987;52.382;9.752;2023-03-13T08:14:02;99064.47;;;10.67;100.00
72560;BME280;62987;52.382;9.752;2023-03-13T08:16:35;99062.34;;;10.85;100.00
72560;BME280;62987;52.382;9.752;2023-03-13T08:19:06;99070.66;;;10.93;100.00
72560;BME280;62987;52.382;9.752;2023-03-13T08:21:36;99056.16;;;10.97;100.00
72560;BME280;62987;52.382;9.752;2023-03-13T08:24:06;99039.56;;;10.94;100.00
72560;BME280;62987;52.382;9.752;2023-03-13T08:26:37;99048.88;;;11.25;100.00
72560;BME280;62987;52.382;9.752;2023-03-13T08:29:07;99067.59;;;11.36;100.00
72560;BME280;62987;52.382;9.752;2023-03-13T08:31:37;99048.66;;;11.40;100.00
72560;BME280;62987;52.382;9.752;2023-03-13T08:34:05;99030.50;;;11.58;100.00
72560;BME280;62987;52.382;9.752;2023-03-13T08:36:35;99014.41;;;11.59;100.00
72560;BME280;62987;52.382;9.752;2023-03-13T08:39:08;99019.19;;;11.54;100.00
72560;BME280;62987;52.382;9.752;2023-03-13T08:41:37;99041.31;;;11.68;100.00
72560;BME280;62987;52.382;9.752;2023-03-13T08:44:07;99041.84;;;11.73;100.00
72560;BME280;62987;52.382;9.752;2023-03-13T08:46:37;99051.22;;;11.78;100.00
72560;BME280;62987;52.382;9.752;2023-03-13T08:49:06;99032.97;;;11.85;98.76
72560;BME280;62987;52.382;9.752;2023-03-13T08:51:36;99024.81;;;11.99;97.49
72560;BME280;62987;52.382;9.752;2023-03-13T08:54:04;99037.38;;;11.97;97.64
72560;BME280;62987;52.382;9.752;2023-03-13T08:56:33;99028.44;;;11.98;97.43
72560;BME280;62987;52.382;9.752;2023-03-13T08:59:02;99005.34;;;12.10;95.12
72560;BME280;62987;52.382;9.752;2023-03-13T09:01:32;99031.06;;;12.22;94.99
72560;BME280;62987;52.382;9.752;2023-03-13T09:04:00;99026.50;;;12.35;92.92
72560;BME280;62987;52.382;9.752;2023-03-13T09:06:30;99012.31;;;12.34;93.50
72560;BME280;62987;52.382;9.752;2023-03-13T09:09:01;99011.84;;;12.40;93.49
72560;BME280;62987;52.382;9.752;2023-03-13T09:11:29;99016.69;;;12.47;92.18
72560;BME280;62987;52.382;9.752;2023-03-13T09:13:57;98980.44;;;12.33;91.89
72560;BME280;62987;52.382;9.752;2023-03-13T09:16:26;99011.38;;;12.58;90.64
72560;BME280;62987;52.382;9.752;2023-03-13T09:18:56;99009.22;;;12.63;90.13
72560;BME280;62987;52.382;9.752;2023-03-13T09:21:25;99006.78;;;12.60;90.11
72560;BME280;62987;52.382;9.752;2023-03-13T09:23:53;99008.28;;;12.64;90.00
72560;BME280;62987;52.382;9.752;2023-03-13T09:26:23;98985.97;;;12.76;88.87
72560;BME280;62987;52.382;9.752;2023-03-13T09:28:52;98972.38;;;12.79;88.79
72560;BME280;62987;52.382;9.752;2023-03-13T09:31:22;98981.09;;;12.81;89.62
72560;BME280;62987;52.382;9.752;2023-03-13T09:33:52;98990.44;;;12.87;89.27
72560;BME280;62987;52.382;9.752;2023-03-13T09:36:21;98974.81;;;12.82;89.33
72560;BME280;62987;52.382;9.752;2023-03-13T09:38:50;98993.47;;;12.82;89.94
72560;BME280;62987;52.382;9.752;2023-03-13T09:41:26;98989.09;;;12.92;88.73
72560;BME280;62987;52.382;9.752;2023-03-13T09:44:02;98983.78;;;12.92;88.71
72560;BME280;62987;52.382;9.752;2023-03-13T09:46:36;98973.81;;;13.05;87.71
72560;BME280;62987;52.382;9.752;2023-03-13T09:49:12;98986.31;;;13.05;88.10
72560;BME280;62987;52.382;9.752;2023-03-13T09:51:47;98976.75;;;13.13;87.14
72560;BME280;62987;52.382;9.752;2023-03-13T09:54:21;98993.97;;;13.20;86.71
72560;BME280;62987;52.382;9.752;2023-03-13T09:56:52;98950.66;;;13.17;86.26
72560;BME280;62987;52.382;9.752;2023-03-13T09:59:27;98974.34;;;13.22;86.50
72560;BME280;62987;52.382;9.752;2023-03-13T10:01:57;98964.25;;;13.25;86.62
72560;BME280;62987;52.382;9.752;2023-03-13T10:04:31;98964.59;;;13.32;86.21
72560;BME280;62987;52.382;9.752;2023-03-13T10:07:01;98960.84;;;13.23;85.50
72560;BME280;62987;52.382;9.752;2023-03-13T10:09:32;98968.50;;;13.28;86.07
72560;BME280;62987;52.382;9.752;2023-03-13T10:12:09;98958.78;;;13.27;85.65
72560;BME280;62987;52.382;9.752;2023-03-13T10:14:42;98985.09;;;13.31;85.49
72560;BME280;62987;52.382;9.752;2023-03-13T10:17:19;98956.84;;;13.29;85.49
72560;BME280;62987;52.382;9.752;2023-03-13T10:19:56;98968.84;;;13.34;85.63
72560;BME280;62987;52.382;9.752;2023-03-13T10:22:26;98970.91;;;13.31;86.65
72560;BME280;62987;52.382;9.752;2023-03-13T10:24:58;98985.72;;;13.35;85.74
72560;BME280;62987;52.382;9.752;2023-03-13T10:27:28;98976.13;;;13.32;85.57
72560;BME280;62987;52.382;9.752;2023-03-13T10:29:56;98964.59;;;13.32;86.24
72560;BME280;62987;52.382;9.752;2023-03-13T10:32:26;98982.50;;;13.52;85.69
72560;BME280;62987;52.382;9.752;2023-03-13T10:34:56;98955.34;;;13.47;84.76
72560;BME280;62987;52.382;9.752;2023-03-13T10:37:27;98976.09;;;13.75;85.00
72560;BME280;62987;52.382;9.752;2023-03-13T10:40:11;98981.94;;;13.80;84.60
72560;BME280;62987;52.382;9.752;2023-03-13T10:42:42;98966.91;;;13.68;84.38
72560;BME280;62987;52.382;9.752;2023-03-13T10:45:15;98936.69;;;13.88;82.96
72560;BME280;62987;52.382;9.752;2023-03-13T10:47:44;98950.13;;;15.21;78.31
72560;BME280;62987;52.382;9.752;2023-03-13T10:50:17;98952.91;;;15.10;77.42
72560;BME280;62987;52.382;9.752;2023-03-13T10:52:48;98947.25;;;15.82;75.48
72560;BME280;62987;52.382;9.752;2023-03-13T10:55:18;98948.81;;;16.32;72.66
72560;BME280;62987;52.382;9.752;2023-03-13T10:57:56;98927.97;;;17.28;66.96
72560;BME280;62987;52.382;9.752;2023-03-13T11:00:32;98936.31;;;17.25;66.78
72560;BME280;62987;52.382;9.752;2023-03-13T11:03:04;98939.84;;;16.61;69.81
72560;BME280;62987;52.382;9.752;2023-03-13T11:05:38;98941.88;;;16.30;71.17
72560;BME280;62987;52.382;9.752;2023-03-13T11:08:18;98937.53;;;15.90;72.94
72560;BME280;62987;52.382;9.752;2023-03-13T11:10:53;98924.47;;;15.28;74.59
72560;BME280;62987;52.382;9.752;2023-03-13T11:13:31;98938.22;;;15.04;75.27
72560;BME280;62987;52.382;9.752;2023-03-13T11:16:17;98923.03;;;15.24;76.16
72560;BME280;62987;52.382;9.752;2023-03-13T11:19:08;98923.75;;;15.26;74.97
72560;BME280;62987;52.382;9.752;2023-03-13T11:21:47;98903.13;;;15.86;72.59
72560;BME280;62987;52.382;9.752;2023-03-13T11:24:21;98912.25;;;16.78;69.07
72560;BME280;62987;52.382;9.752;2023-03-13T11:26:57;98892.06;;;16.08;69.47
72560;BME280;62987;52.382;9.752;2023-03-13T11:29:39;98900.53;;;16.13;69.89
72560;BME280;62987;52.382;9.752;2023-03-13T11:32:19;98900.16;;;16.64;67.61
72560;BME280;62987;52.382;9.752;2023-03-13T11:34:51;98872.34;;;17.10;65.18
72560;BME280;62987;52.382;9.752;2023-03-13T11:37:23;98875.81;;;17.21;64.24
72560;BME280;62987;52.382;9.752;2023-03-13T11:39:59;98879.50;;;17.19;65.02
72560;BME280;62987;52.382;9.752;2023-03-13T11:42:43;98864.72;;;16.42;66.83
72560;BME280;62987;52.382;9.752;2023-03-13T11:45:36;98882.13;;;17.47;63.00
72560;BME280;62987;52.382;9.752;2023-03-13T11:48:14;98855.97;;;19.54;55.50
72560;BME280;62987;52.382;9.752;2023-03-13T11:50:51;98872.66;;;20.06;53.26
72560;BME280;62987;52.382;9.752;2023-03-13T11:53:30;98873.59;;;20.62;50.07
72560;BME280;62987;52.382;9.752;2023-03-13T11:56:07;98846.13;;;19.45;53.36
72560;BME280;62987;52.382;9.752;2023-03-13T11:58:50;98864.38;;;19.01;53.36
72560;BME280;62987;52.382;9.752;2023-03-13T12:01:24;98866.59;;;19.55;53.03
72560;BME280;62987;52.382;9.752;2023-03-13T12:03:56;98842.44;;;18.02;56.57
72560;BME280;62987;52.382;9.752;2023-03-13T12:06:29;98857.56;;;17.42;59.16
72560;BME280;62987;52.382;9.752;2023-03-13T12:09:05;98846.88;;;17.85;58.30
72560;BME280;62987;52.382;9.752;2023-03-13T12:11:40;98850.44;;;18.63;55.67
72560;BME280;62987;52.382;9.752;2023-03-13T12:14:14;98856.38;;;20.63;49.05
72560;BME280;62987;52.382;9.752;2023-03-13T12:16:53;98813.81;;;18.87;54.25
72560;BME280;62987;52.382;9.752;2023-03-13T12:19:28;98806.38;;;18.13;55.50
72560;BME280;62987;52.382;9.752;2023-03-13T12:22:02;98836.81;;;17.52;56.11
72560;BME280;62987;52.382;9.752;2023-03-13T12:24:37;98850.53;;;18.80;52.88
72560;BME280;62987;52.382;9.752;2023-03-13T12:27:17;98836.56;;;20.07;49.60
72560;BME280;62987;52.382;9.752;2023-03-13T12:29:55;98818.31;;;19.36;49.87
72560;BME280;62987;52.382;9.752;2023-03-13T12:32:36;98814.53;;;18.97;50.26
72560;BME280;62987;52.382;9.752;2023-03-13T12:35:07;98810.63;;;19.49;48.37
72560;BME280;62987;52.382;9.752;2023-03-13T12:37:46;98822.25;;;18.24;52.02
72560;BME280;62987;52.382;9.752;2023-03-13T12:40:19;98802.66;;;18.06;53.63
72560;BME280;62987;52.382;9.752;2023-03-13T12:42:54;98798.78;;;19.42;51.31
72560;BME280;62987;52.382;9.752;2023-03-13T12:45:24;98804.84;;;19.28;50.66
72560;BME280;62987;52.382;9.752;2023-03-13T12:48:22;98795.75;;;19.29;52.29
72560;BME280;62987;52.382;9.752;2023-03-13T12:51:05;98813.25;;;19.33;50.18
72560;BME280;62987;52.382;9.752;2023-03-13T12:54:16;98800.06;;;18.98;49.09
72560;BME280;62987;52.382;9.752;2023-03-13T12:56:59;98766.56;;;19.33;49.80
72560;BME280;62987;52.382;9.752;2023-03-13T12:59:34;98760.72;;;18.29;52.27
72560;BME280;62987;52.382;9.752;2023-03-13T13:02:14;98777.59;;;18.39;53.41
72560;BME280;62987;52.382;9.752;2023-03-13T13:04:46;98773.88;;;18.66;52.08
72560;BME280;62987;52.382;9.752;2023-03-13T13:07:21;98746.19;;;19.30;50.62
72560;BME280;62987;52.382;9.752;2023-03-13T13:10:02;98738.06;;;18.90;50.68
72560;BME280;62987;52.382;9.752;2023-03-13T13:12:31;98758.09;;;18.87;51.57
72560;BME280;62987;52.382;9.752;2023-03-13T13:15:20;98761.34;;;18.15;53.39
72560;BME280;62987;52.382;9.752;2023-03-13T13:18:00;98752.28;;;18.24;53.42
72560;BME280;62987;52.382;9.752;2023-03-13T13:20:47;98739.06;;;18.38;53.24
72560;BME280;62987;52.382;9.752;2023-03-13T13:23:26;98759.19;;;18.60;52.14
72560;BME280;62987;52.382;9.752;2023-03-13T13:28:45;98730.50;;;17.75;54.41
72560;BME280;62987;52.382;9.752;2023-03-13T13:31:44;98726.16;;;18.50;51.87
72560;BME280;62987;52.382;9.752;2023-03-13T13:37:25;98714.31;;;18.85;51.31
72560;BME280;62987;52.382;9.752;2023-03-13T13:40:16;98708.56;;;19.85;48.10